sensor_id;sensor_type;location;lat;lon;timestamp;P1;durP1;ratioP1;P2;durP2;ratioP2
23634;SDS011;11994;51.038;16.974;2022-09-09T00:04:55;5.10;;;3.00;;
23634;SDS011;11994;51.038;16.974;2022-09-09T00:10:22;4.08;;;2.45;;
23634;SDS011;11994;51.038;16.974;2022-09-09T00:15:57;6.53;;;3.15;;
23634;SDS011;11994;51.038;16.974;2022-09-09T00:18:33;5.85;;;3.00;;
23634;SDS011;11994;51.038;16.974;2022-09-09T00:21:11;5.37;;;2.62;;
23634;SDS011;11994;51.038;16.974;2022-09-09T00:23:48;5.85;;;2.55;;
23634;SDS011;11994;51.038;16.974;2022-09-09T00:31:35;4.25;;;2.95;;
23634;SDS011;11994;51.038;16.974;2022-09-09T00:34:18;4.92;;;3.70;;
23634;SDS011;11994;51.038;16.974;2022-09-09T00:36:49;4.05;;;2.70;;
23634;SDS011;11994;51.038;16.974;2022-09-09T00:39:41;5.90;;;3.00;;
23634;SDS011;11994;51.038;16.974;2022-09-09T00:42:17;4.95;;;2.45;;
23634;SDS011;11994;51.038;16.974;2022-09-09T00:45:23;3.72;;;2.58;;
23634;SDS011;11994;51.038;16.974;2022-09-09T00:47:55;8.40;;;3.10;;
23634;SDS011;11994;51.038;16.974;2022-09-09T00:50:34;4.47;;;2.45;;
23634;SDS011;11994;51.038;16.974;2022-09-09T00:53:39;3.95;;;2.45;;
23634;SDS011;11994;51.038;16.974;2022-09-09T00:56:20;5.40;;;2.90;;
23634;SDS011;11994;51.038;16.974;2022-09-09T00:58:53;6.10;;;3.05;;
23634;SDS011;11994;51.038;16.974;2022-09-09T01:01:27;4.90;;;3.37;;
23634;SDS011;11994;51.038;16.974;2022-09-09T01:03:53;3.70;;;3.27;;
23634;SDS011;11994;51.038;16.974;2022-09-09T01:09:21;4.72;;;2.90;;
23634;SDS011;11994;51.038;16.974;2022-09-09T01:17:19;6.70;;;3.45;;
23634;SDS011;11994;51.038;16.974;2022-09-09T01:19:59;5.08;;;3.52;;
23634;SDS011;11994;51.038;16.974;2022-09-09T01:28:50;6.45;;;3.00;;
23634;SDS011;11994;51.038;16.974;2022-09-09T01:33:58;7.05;;;3.42;;
23634;SDS011;11994;51.038;16.974;2022-09-09T01:36:38;6.22;;;3.77;;
23634;SDS011;11994;51.038;16.974;2022-09-09T01:39:10;6.05;;;3.10;;
23634;SDS011;11994;51.038;16.974;2022-09-09T01:41:37;6.70;;;3.10;;
23634;SDS011;11994;51.038;16.974;2022-09-09T01:44:03;7.42;;;3.05;;
23634;SDS011;11994;51.038;16.974;2022-09-09T01:46:30;6.72;;;3.00;;
23634;SDS011;11994;51.038;16.974;2022-09-09T01:48:56;4.65;;;3.12;;
23634;SDS011;11994;51.038;16.974;2022-09-09T01:51:24;5.17;;;3.50;;
23634;SDS011;11994;51.038;16.974;2022-09-09T01:53:50;4.62;;;2.80;;
23634;SDS011;11994;51.038;16.974;2022-09-09T01:59:11;5.08;;;2.60;;
23634;SDS011;11994;51.038;16.974;2022-09-09T02:02:45;4.75;;;2.77;;
23634;SDS011;11994;51.038;16.974;2022-09-09T02:05:30;4.17;;;2.80;;
23634;SDS011;11994;51.038;16.974;2022-09-09T02:07:24;4.47;;;2.50;;
23634;SDS011;11994;51.038;16.974;2022-09-09T02:13:03;4.75;;;2.80;;
23634;SDS011;11994;51.038;16.974;2022-09-09T02:15:31;7.60;;;2.75;;
23634;SDS011;11994;51.038;16.974;2022-09-09T02:18:01;5.42;;;3.20;;
23634;SDS011;11994;51.038;16.974;2022-09-09T02:20:33;5.15;;;3.10;;
23634;SDS011;11994;51.038;16.974;2022-09-09T02:23:02;3.10;;;2.60;;
23634;SDS011;11994;51.038;16.974;2022-09-09T02:25:31;5.95;;;2.33;;
23634;SDS011;11994;51.038;16.974;2022-09-09T02:27:59;2.90;;;2.35;;
23634;SDS011;11994;51.038;16.974;2022-09-09T02:30:28;4.33;;;2.87;;
23634;SDS011;11994;51.038;16.974;2022-09-09T02:32:57;4.53;;;2.65;;
23634;SDS011;11994;51.038;16.974;2022-09-09T02:35:27;4.62;;;3.20;;
23634;SDS011;11994;51.038;16.974;2022-09-09T02:37:56;7.22;;;2.80;;
23634;SDS011;11994;51.038;16.974;2022-09-09T02:42:54;3.00;;;2.50;;
23634;SDS011;11994;51.038;16.974;2022-09-09T02:45:23;5.58;;;2.72;;
23634;SDS011;11994;51.038;16.974;2022-09-09T02:50:46;5.08;;;3.02;;
23634;SDS011;11994;51.038;16.974;2022-09-09T02:56:20;4.35;;;2.25;;
23634;SDS011;11994;51.038;16.974;2022-09-09T02:58:49;4.92;;;2.58;;
23634;SDS011;11994;51.038;16.974;2022-09-09T03:01:17;3.72;;;2.40;;
23634;SDS011;11994;51.038;16.974;2022-09-09T03:03:43;5.50;;;3.42;;
23634;SDS011;11994;51.038;16.974;2022-09-09T03:06:09;5.08;;;2.92;;
23634;SDS011;11994;51.038;16.974;2022-09-09T03:08:37;4.90;;;3.30;;
23634;SDS011;11994;51.038;16.974;2022-09-09T03:11:03;5.70;;;2.92;;
23634;SDS011;11994;51.038;16.974;2022-09-09T03:13:29;8.18;;;2.72;;
23634;SDS011;11994;51.038;16.974;2022-09-09T03:15:55;4.37;;;2.40;;
23634;SDS011;11994;51.038;16.974;2022-09-09T03:18:21;5.45;;;3.10;;
23634;SDS011;11994;51.038;16.974;2022-09-09T03:20:48;3.33;;;3.02;;
23634;SDS011;11994;51.038;16.974;2022-09-09T03:23:14;5.72;;;3.27;;
23634;SDS011;11994;51.038;16.974;2022-09-09T03:25:46;6.33;;;2.90;;
23634;SDS011;11994;51.038;16.974;2022-09-09T03:28:17;6.92;;;2.98;;
23634;SDS011;11994;51.038;16.974;2022-09-09T03:30:43;6.53;;;2.80;;
23634;SDS011;11994;51.038;16.974;2022-09-09T03:33:09;8.68;;;3.33;;
23634;SDS011;11994;51.038;16.974;2022-09-09T03:35:35;6.22;;;3.47;;
23634;SDS011;11994;51.038;16.974;2022-09-09T03:38:01;4.87;;;3.35;;
23634;SDS011;11994;51.038;16.974;2022-09-09T03:40:27;4.70;;;2.83;;
23634;SDS011;11994;51.038;16.974;2022-09-09T03:42:53;5.28;;;2.83;;
23634;SDS011;11994;51.038;16.974;2022-09-09T03:45:19;4.67;;;2.80;;
23634;SDS011;11994;51.038;16.974;2022-09-09T03:47:44;4.87;;;3.40;;
23634;SDS011;11994;51.038;16.974;2022-09-09T03:50:11;4.00;;;3.20;;
23634;SDS011;11994;51.038;16.974;2022-09-09T03:52:37;4.80;;;3.17;;
23634;SDS011;11994;51.038;16.974;2022-09-09T03:55:06;3.83;;;2.83;;
23634;SDS011;11994;51.038;16.974;2022-09-09T03:57:32;3.30;;;2.80;;
23634;SDS011;11994;51.038;16.974;2022-09-09T04:00:02;4.85;;;2.98;;
23634;SDS011;11994;51.038;16.974;2022-09-09T04:02:31;4.62;;;2.62;;
23634;SDS011;11994;51.038;16.974;2022-09-09T04:04:57;4.15;;;3.00;;
23634;SDS011;11994;51.038;16.974;2022-09-09T04:07:23;3.60;;;2.77;;
23634;SDS011;11994;51.038;16.974;2022-09-09T04:09:48;8.55;;;2.62;;
23634;SDS011;11994;51.038;16.974;2022-09-09T04:12:14;4.40;;;2.70;;
23634;SDS011;11994;51.038;16.974;2022-09-09T04:14:41;5.78;;;3.00;;
23634;SDS011;11994;51.038;16.974;2022-09-09T04:17:07;5.60;;;2.90;;
23634;SDS011;11994;51.038;16.974;2022-09-09T04:19:33;4.47;;;3.30;;
23634;SDS011;11994;51.038;16.974;2022-09-09T04:21:59;7.58;;;2.80;;
23634;SDS011;11994;51.038;16.974;2022-09-09T04:24:24;5.45;;;2.62;;
23634;SDS011;11994;51.038;16.974;2022-09-09T04:26:52;4.60;;;3.05;;
23634;SDS011;11994;51.038;16.974;2022-09-09T04:29:18;4.47;;;2.80;;
23634;SDS011;11994;51.038;16.974;2022-09-09T04:31:44;3.83;;;2.98;;
23634;SDS011;11994;51.038;16.974;2022-09-09T04:34:09;5.37;;;2.92;;
23634;SDS011;11994;51.038;16.974;2022-09-09T04:36:35;6.97;;;3.20;;
23634;SDS011;11994;51.038;16.974;2022-09-09T04:39:02;4.17;;;3.00;;
23634;SDS011;11994;51.038;16.974;2022-09-09T04:41:28;3.30;;;3.00;;
23634;SDS011;11994;51.038;16.974;2022-09-09T04:43:55;4.60;;;3.00;;
23634;SDS011;11994;51.038;16.974;2022-09-09T04:46:21;6.28;;;2.80;;
23634;SDS011;11994;51.038;16.974;2022-09-09T04:48:49;3.65;;;2.90;;
23634;SDS011;11994;51.038;16.974;2022-09-09T04:51:15;4.25;;;3.17;;
23634;SDS011;11994;51.038;16.974;2022-09-09T04:53:41;7.30;;;3.20;;
23634;SDS011;11994;51.038;16.974;2022-09-09T04:56:12;4.53;;;3.47;;
23634;SDS011;11994;51.038;16.974;2022-09-09T04:58:38;5.35;;;3.35;;
23634;SDS011;11994;51.038;16.974;2022-09-09T05:01:08;6.53;;;3.20;;
23634;SDS011;11994;51.038;16.974;2022-09-09T05:03:38;4.80;;;2.70;;
23634;SDS011;11994;51.038;16.974;2022-09-09T05:06:04;4.20;;;2.98;;
23634;SDS011;11994;51.038;16.974;2022-09-09T05:08:35;4.60;;;3.17;;
23634;SDS011;11994;51.038;16.974;2022-09-09T05:13:52;6.15;;;3.25;;
23634;SDS011;11994;51.038;16.974;2022-09-09T05:16:19;4.50;;;3.10;;
23634;SDS011;11994;51.038;16.974;2022-09-09T05:18:47;5.47;;;3.40;;
23634;SDS011;11994;51.038;16.974;2022-09-09T05:21:16;3.37;;;2.95;;
23634;SDS011;11994;51.038;16.974;2022-09-09T05:23:44;4.53;;;3.52;;
23634;SDS011;11994;51.038;16.974;2022-09-09T05:26:12;4.78;;;4.37;;
23634;SDS011;11994;51.038;16.974;2022-09-09T05:28:41;4.25;;;3.17;;
23634;SDS011;11994;51.038;16.974;2022-09-09T05:31:08;4.17;;;2.80;;
23634;SDS011;11994;51.038;16.974;2022-09-09T05:33:37;4.83;;;3.10;;
23634;SDS011;11994;51.038;16.974;2022-09-09T05:36:15;7.35;;;3.52;;
23634;SDS011;11994;51.038;16.974;2022-09-09T05:38:44;6.40;;;3.50;;
23634;SDS011;11994;51.038;16.974;2022-09-09T05:41:11;5.22;;;3.12;;
23634;SDS011;11994;51.038;16.974;2022-09-09T05:43:40;6.42;;;3.10;;
23634;SDS011;11994;51.038;16.974;2022-09-09T05:46:10;3.92;;;2.83;;
23634;SDS011;11994;51.038;16.974;2022-09-09T05:48:40;5.92;;;3.95;;
23634;SDS011;11994;51.038;16.974;2022-09-09T05:51:13;4.60;;;3.22;;
23634;SDS011;11994;51.038;16.974;2022-09-09T05:53:42;5.75;;;3.05;;
23634;SDS011;11994;51.038;16.974;2022-09-09T05:56:11;6.42;;;3.40;;
23634;SDS011;11994;51.038;16.974;2022-09-09T05:58:50;4.53;;;3.33;;
23634;SDS011;11994;51.038;16.974;2022-09-09T06:01:24;6.03;;;3.87;;
23634;SDS011;11994;51.038;16.974;2022-09-09T06:03:50;4.62;;;3.65;;
23634;SDS011;11994;51.038;16.974;2022-09-09T06:06:22;4.37;;;3.35;;
23634;SDS011;11994;51.038;16.974;2022-09-09T06:08:55;7.08;;;2.80;;
23634;SDS011;11994;51.038;16.974;2022-09-09T06:11:24;3.85;;;2.52;;
23634;SDS011;11994;51.038;16.974;2022-09-09T06:13:53;5.30;;;3.00;;
23634;SDS011;11994;51.038;16.974;2022-09-09T06:16:21;4.42;;;2.70;;
23634;SDS011;11994;51.038;16.974;2022-09-09T06:18:49;7.62;;;2.87;;
23634;SDS011;11994;51.038;16.974;2022-09-09T06:21:19;4.45;;;2.10;;
23634;SDS011;11994;51.038;16.974;2022-09-09T06:23:48;4.15;;;2.20;;
23634;SDS011;11994;51.038;16.974;2022-09-09T06:26:20;3.35;;;2.35;;
23634;SDS011;11994;51.038;16.974;2022-09-09T06:28:51;4.47;;;2.70;;
23634;SDS011;11994;51.038;16.974;2022-09-09T06:31:20;4.62;;;2.60;;
23634;SDS011;11994;51.038;16.974;2022-09-09T06:33:49;4.17;;;2.55;;
23634;SDS011;11994;51.038;16.974;2022-09-09T06:36:18;6.00;;;3.25;;
23634;SDS011;11994;51.038;16.974;2022-09-09T06:38:46;5.33;;;2.62;;
23634;SDS011;11994;51.038;16.974;2022-09-09T06:41:14;7.83;;;3.02;;
23634;SDS011;11994;51.038;16.974;2022-09-09T06:46:11;4.65;;;2.50;;
23634;SDS011;11994;51.038;16.974;2022-09-09T06:48:44;8.23;;;2.58;;
23634;SDS011;11994;51.038;16.974;2022-09-09T06:51:12;9.00;;;2.72;;
23634;SDS011;11994;51.038;16.974;2022-09-09T06:53:44;4.28;;;2.60;;
23634;SDS011;11994;51.038;16.974;2022-09-09T06:56:19;7.12;;;2.40;;
23634;SDS011;11994;51.038;16.974;2022-09-09T06:58:49;6.28;;;2.08;;
23634;SDS011;11994;51.038;16.974;2022-09-09T07:01:25;3.80;;;1.90;;
23634;SDS011;11994;51.038;16.974;2022-09-09T07:03:54;4.97;;;1.95;;
23634;SDS011;11994;51.038;16.974;2022-09-09T07:06:26;4.67;;;1.70;;
23634;SDS011;11994;51.038;16.974;2022-09-09T07:08:56;3.50;;;1.62;;
23634;SDS011;11994;51.038;16.974;2022-09-09T07:11:26;5.78;;;1.75;;
23634;SDS011;11994;51.038;16.974;2022-09-09T07:13:54;2.83;;;1.60;;
23634;SDS011;11994;51.038;16.974;2022-09-09T07:16:22;6.33;;;1.82;;
23634;SDS011;11994;51.038;16.974;2022-09-09T07:18:49;3.50;;;1.45;;
23634;SDS011;11994;51.038;16.974;2022-09-09T07:21:17;6.40;;;1.62;;
23634;SDS011;11994;51.038;16.974;2022-09-09T07:23:44;6.53;;;1.50;;
23634;SDS011;11994;51.038;16.974;2022-09-09T07:26:11;4.85;;;1.30;;
23634;SDS011;11994;51.038;16.974;2022-09-09T07:28:41;3.62;;;1.35;;
23634;SDS011;11994;51.038;16.974;2022-09-09T07:31:13;3.17;;;1.30;;
23634;SDS011;11994;51.038;16.974;2022-09-09T07:33:42;5.12;;;1.15;;
23634;SDS011;11994;51.038;16.974;2022-09-09T07:36:10;4.50;;;1.50;;
23634;SDS011;11994;51.038;16.974;2022-09-09T07:38:43;4.37;;;1.60;;
23634;SDS011;11994;51.038;16.974;2022-09-09T07:41:16;5.42;;;1.27;;
23634;SDS011;11994;51.038;16.974;2022-09-09T07:43:46;3.10;;;1.30;;
23634;SDS011;11994;51.038;16.974;2022-09-09T07:46:14;4.35;;;1.27;;
23634;SDS011;11994;51.038;16.974;2022-09-09T07:48:49;3.35;;;1.12;;
23634;SDS011;11994;51.038;16.974;2022-09-09T07:51:19;4.05;;;1.20;;
23634;SDS011;11994;51.038;16.974;2022-09-09T07:53:52;6.33;;;1.37;;
23634;SDS011;11994;51.038;16.974;2022-09-09T07:56:25;4.92;;;1.50;;
23634;SDS011;11994;51.038;16.974;2022-09-09T07:58:53;5.15;;;1.60;;
23634;SDS011;11994;51.038;16.974;2022-09-09T08:01:26;3.72;;;1.22;;
23634;SDS011;11994;51.038;16.974;2022-09-09T08:03:53;3.45;;;1.32;;
23634;SDS011;11994;51.038;16.974;2022-09-09T08:06:31;6.20;;;1.77;;
23634;SDS011;11994;51.038;16.974;2022-09-09T08:08:58;5.67;;;1.70;;
23634;SDS011;11994;51.038;16.974;2022-09-09T08:11:25;4.53;;;1.60;;
23634;SDS011;11994;51.038;16.974;2022-09-09T08:13:54;3.65;;;1.32;;
23634;SDS011;11994;51.038;16.974;2022-09-09T08:16:26;6.17;;;1.42;;
23634;SDS011;11994;51.038;16.974;2022-09-09T08:18:55;3.30;;;1.20;;
23634;SDS011;11994;51.038;16.974;2022-09-09T08:21:24;5.53;;;1.37;;
23634;SDS011;11994;51.038;16.974;2022-09-09T08:23:53;5.80;;;1.40;;
23634;SDS011;11994;51.038;16.974;2022-09-09T08:26:22;4.80;;;1.30;;
23634;SDS011;11994;51.038;16.974;2022-09-09T08:28:54;2.70;;;1.22;;
23634;SDS011;11994;51.038;16.974;2022-09-09T08:31:23;3.65;;;1.50;;
23634;SDS011;11994;51.038;16.974;2022-09-09T08:33:56;3.58;;;1.50;;
23634;SDS011;11994;51.038;16.974;2022-09-09T08:36:25;4.22;;;1.67;;
23634;SDS011;11994;51.038;16.974;2022-09-09T08:38:55;3.22;;;1.60;;
23634;SDS011;11994;51.038;16.974;2022-09-09T08:49:30;5.28;;;1.40;;
23634;SDS011;11994;51.038;16.974;2022-09-09T08:52:28;6.17;;;1.65;;
23634;SDS011;11994;51.038;16.974;2022-09-09T09:11:54;3.12;;;1.20;;
23634;SDS011;11994;51.038;16.974;2022-09-09T09:14:25;8.10;;;1.60;;
23634;SDS011;11994;51.038;16.974;2022-09-09T09:19:28;1.92;;;1.10;;
23634;SDS011;11994;51.038;16.974;2022-09-09T09:24:52;2.70;;;0.98;;
23634;SDS011;11994;51.038;16.974;2022-09-09T09:27:35;5.20;;;0.95;;
23634;SDS011;11994;51.038;16.974;2022-09-09T09:32:52;3.45;;;1.17;;
23634;SDS011;11994;51.038;16.974;2022-09-09T09:35:22;2.90;;;1.30;;
23634;SDS011;11994;51.038;16.974;2022-09-09T09:37:49;3.65;;;1.10;;
23634;SDS011;11994;51.038;16.974;2022-09-09T09:40:20;2.50;;;1.20;;
23634;SDS011;11994;51.038;16.974;2022-09-09T09:45:32;5.67;;;0.90;;
23634;SDS011;11994;51.038;16.974;2022-09-09T09:48:04;3.25;;;1.00;;
23634;SDS011;11994;51.038;16.974;2022-09-09T09:50:32;4.78;;;1.00;;
23634;SDS011;11994;51.038;16.974;2022-09-09T09:53:00;2.72;;;1.10;;
23634;SDS011;11994;51.038;16.974;2022-09-09T09:55:32;3.60;;;1.00;;
23634;SDS011;11994;51.038;16.974;2022-09-09T09:58:06;3.67;;;0.80;;
23634;SDS011;11994;51.038;16.974;2022-09-09T10:00:37;3.22;;;1.17;;
23634;SDS011;11994;51.038;16.974;2022-09-09T10:03:28;3.50;;;0.80;;
23634;SDS011;11994;51.038;16.974;2022-09-09T10:05:57;4.60;;;0.88;;
23634;SDS011;11994;51.038;16.974;2022-09-09T10:08:24;3.90;;;0.90;;
23634;SDS011;11994;51.038;16.974;2022-09-09T10:10:57;2.22;;;0.70;;
23634;SDS011;11994;51.038;16.974;2022-09-09T10:19:33;2.40;;;0.80;;
23634;SDS011;11994;51.038;16.974;2022-09-09T10:22:12;2.60;;;0.80;;
23634;SDS011;11994;51.038;16.974;2022-09-09T10:33:56;3.15;;;0.88;;
23634;SDS011;11994;51.038;16.974;2022-09-09T10:36:23;3.60;;;0.90;;
23634;SDS011;11994;51.038;16.974;2022-09-09T10:38:53;2.30;;;0.80;;
23634;SDS011;11994;51.038;16.974;2022-09-09T10:41:38;3.72;;;1.00;;
23634;SDS011;11994;51.038;16.974;2022-09-09T10:44:17;3.00;;;1.02;;
23634;SDS011;11994;51.038;16.974;2022-09-09T10:46:52;4.37;;;1.20;;
23634;SDS011;11994;51.038;16.974;2022-09-09T10:55:16;2.77;;;1.17;;
23634;SDS011;11994;51.038;16.974;2022-09-09T10:57:51;5.70;;;1.10;;
23634;SDS011;11994;51.038;16.974;2022-09-09T11:00:21;2.45;;;0.85;;
23634;SDS011;11994;51.038;16.974;2022-09-09T11:03:24;2.67;;;1.10;;
23634;SDS011;11994;51.038;16.974;2022-09-09T11:05:55;2.85;;;1.07;;
23634;SDS011;11994;51.038;16.974;2022-09-09T11:08:28;5.72;;;1.07;;
23634;SDS011;11994;51.038;16.974;2022-09-09T11:13:55;2.35;;;1.00;;
23634;SDS011;11994;51.038;16.974;2022-09-09T11:19:31;3.30;;;0.95;;
23634;SDS011;11994;51.038;16.974;2022-09-09T11:22:04;2.90;;;1.25;;
23634;SDS011;11994;51.038;16.974;2022-09-09T11:24:38;3.30;;;1.17;;
23634;SDS011;11994;51.038;16.974;2022-09-09T11:27:10;2.42;;;1.00;;
23634;SDS011;11994;51.038;16.974;2022-09-09T11:42:06;3.42;;;1.05;;
23634;SDS011;11994;51.038;16.974;2022-09-09T11:44:39;5.22;;;1.02;;
23634;SDS011;11994;51.038;16.974;2022-09-09T11:52:47;3.05;;;1.12;;
23634;SDS011;11994;51.038;16.974;2022-09-09T11:58:14;3.17;;;1.12;;
23634;SDS011;11994;51.038;16.974;2022-09-09T12:00:39;2.42;;;0.90;;
23634;SDS011;11994;51.038;16.974;2022-09-09T12:06:27;2.42;;;0.90;;
23634;SDS011;11994;51.038;16.974;2022-09-09T12:09:06;2.90;;;0.90;;
23634;SDS011;11994;51.038;16.974;2022-09-09T12:11:36;2.70;;;1.20;;
23634;SDS011;11994;51.038;16.974;2022-09-09T12:14:02;5.53;;;1.22;;
23634;SDS011;11994;51.038;16.974;2022-09-09T12:16:35;3.15;;;1.17;;
23634;SDS011;11994;51.038;16.974;2022-09-09T12:19:20;4.08;;;0.98;;
23634;SDS011;11994;51.038;16.974;2022-09-09T12:24:54;2.72;;;1.00;;
23634;SDS011;11994;51.038;16.974;2022-09-09T12:27:32;3.70;;;1.10;;
23634;SDS011;11994;51.038;16.974;2022-09-09T12:30:21;3.65;;;1.27;;
23634;SDS011;11994;51.038;16.974;2022-09-09T12:32:58;3.92;;;1.00;;
23634;SDS011;11994;51.038;16.974;2022-09-09T12:35:37;2.02;;;1.00;;
23634;SDS011;11994;51.038;16.974;2022-09-09T12:38:05;2.92;;;1.15;;
23634;SDS011;11994;51.038;16.974;2022-09-09T12:40:36;2.90;;;1.00;;
23634;SDS011;11994;51.038;16.974;2022-09-09T12:43:21;3.60;;;1.00;;
23634;SDS011;11994;51.038;16.974;2022-09-09T12:45:46;4.05;;;1.00;;
23634;SDS011;11994;51.038;16.974;2022-09-09T12:48:15;3.47;;;1.20;;
23634;SDS011;11994;51.038;16.974;2022-09-09T12:50:46;3.00;;;1.20;;
23634;SDS011;11994;51.038;16.974;2022-09-09T12:53:25;2.92;;;1.05;;
23634;SDS011;11994;51.038;16.974;2022-09-09T12:56:07;2.67;;;1.17;;
23634;SDS011;11994;51.038;16.974;2022-09-09T12:58:34;2.00;;;0.90;;
23634;SDS011;11994;51.038;16.974;2022-09-09T13:01:03;2.65;;;1.02;;
23634;SDS011;11994;51.038;16.974;2022-09-09T13:03:32;1.92;;;0.90;;
23634;SDS011;11994;51.038;16.974;2022-09-09T13:06:16;6.20;;;1.10;;
23634;SDS011;11994;51.038;16.974;2022-09-09T13:08:59;2.35;;;1.00;;
23634;SDS011;11994;51.038;16.974;2022-09-09T13:11:29;1.98;;;0.90;;
23634;SDS011;11994;51.038;16.974;2022-09-09T13:13:56;2.00;;;1.02;;
23634;SDS011;11994;51.038;16.974;2022-09-09T13:16:27;3.72;;;1.05;;
23634;SDS011;11994;51.038;16.974;2022-09-09T13:18:57;4.28;;;1.20;;
23634;SDS011;11994;51.038;16.974;2022-09-09T13:21:32;2.92;;;1.12;;
23634;SDS011;11994;51.038;16.974;2022-09-09T13:24:21;2.77;;;1.20;;
23634;SDS011;11994;51.038;16.974;2022-09-09T13:26:35;2.37;;;0.95;;
23634;SDS011;11994;51.038;16.974;2022-09-09T13:29:16;2.27;;;1.00;;
23634;SDS011;11994;51.038;16.974;2022-09-09T13:31:44;2.30;;;1.07;;
23634;SDS011;11994;51.038;16.974;2022-09-09T13:34:25;2.50;;;1.10;;
23634;SDS011;11994;51.038;16.974;2022-09-09T13:37:01;2.35;;;0.98;;
23634;SDS011;11994;51.038;16.974;2022-09-09T13:39:35;2.83;;;0.90;;
23634;SDS011;11994;51.038;16.974;2022-09-09T13:42:19;5.03;;;1.05;;
23634;SDS011;11994;51.038;16.974;2022-09-09T13:44:39;3.02;;;1.15;;
23634;SDS011;11994;51.038;16.974;2022-09-09T13:47:49;2.00;;;1.05;;
23634;SDS011;11994;51.038;16.974;2022-09-09T13:49:46;3.17;;;1.10;;
23634;SDS011;11994;51.038;16.974;2022-09-09T13:52:13;2.45;;;1.12;;
23634;SDS011;11994;51.038;16.974;2022-09-09T13:54:46;2.80;;;1.22;;
23634;SDS011;11994;51.038;16.974;2022-09-09T13:57:21;2.60;;;1.20;;
23634;SDS011;11994;51.038;16.974;2022-09-09T14:02:13;2.90;;;1.10;;
23634;SDS011;11994;51.038;16.974;2022-09-09T14:04:42;3.40;;;1.60;;
23634;SDS011;11994;51.038;16.974;2022-09-09T14:07:14;3.47;;;1.10;;
23634;SDS011;11994;51.038;16.974;2022-09-09T14:12:08;2.62;;;1.20;;
23634;SDS011;11994;51.038;16.974;2022-09-09T14:14:36;2.62;;;1.22;;
23634;SDS011;11994;51.038;16.974;2022-09-09T14:17:01;1.72;;;0.90;;
23634;SDS011;11994;51.038;16.974;2022-09-09T14:19:28;3.75;;;1.10;;
23634;SDS011;11994;51.038;16.974;2022-09-09T14:21:56;3.40;;;1.30;;
23634;SDS011;11994;51.038;16.974;2022-09-09T14:24:23;5.05;;;1.20;;
23634;SDS011;11994;51.038;16.974;2022-09-09T14:26:50;3.67;;;1.30;;
23634;SDS011;11994;51.038;16.974;2022-09-09T14:29:18;4.83;;;1.55;;
23634;SDS011;11994;51.038;16.974;2022-09-09T14:31:44;3.90;;;1.00;;
23634;SDS011;11994;51.038;16.974;2022-09-09T14:34:09;2.47;;;1.00;;
23634;SDS011;11994;51.038;16.974;2022-09-09T14:36:36;2.08;;;0.80;;
23634;SDS011;11994;51.038;16.974;2022-09-09T14:39:05;2.42;;;0.90;;
23634;SDS011;11994;51.038;16.974;2022-09-09T14:41:35;2.00;;;0.90;;
23634;SDS011;11994;51.038;16.974;2022-09-09T14:44:03;4.47;;;0.98;;
23634;SDS011;11994;51.038;16.974;2022-09-09T14:46:33;2.10;;;1.00;;
23634;SDS011;11994;51.038;16.974;2022-09-09T14:49:00;6.35;;;1.20;;
23634;SDS011;11994;51.038;16.974;2022-09-09T14:51:30;3.12;;;1.30;;
23634;SDS011;11994;51.038;16.974;2022-09-09T14:53:59;3.62;;;1.12;;
23634;SDS011;11994;51.038;16.974;2022-09-09T14:56:30;2.40;;;0.95;;
23634;SDS011;11994;51.038;16.974;2022-09-09T14:59:01;2.70;;;0.90;;
23634;SDS011;11994;51.038;16.974;2022-09-09T15:01:27;1.82;;;0.82;;
23634;SDS011;11994;51.038;16.974;2022-09-09T15:03:56;4.05;;;1.02;;
23634;SDS011;11994;51.038;16.974;2022-09-09T15:06:28;3.43;;;1.03;;
23634;SDS011;11994;51.038;16.974;2022-09-09T15:08:58;1.80;;;0.90;;
23634;SDS011;11994;51.038;16.974;2022-09-09T15:11:33;2.90;;;0.90;;
23634;SDS011;11994;51.038;16.974;2022-09-09T15:14:05;2.83;;;1.02;;
23634;SDS011;11994;51.038;16.974;2022-09-09T15:16:33;2.17;;;1.00;;
23634;SDS011;11994;51.038;16.974;2022-09-09T15:18:59;3.45;;;1.25;;
23634;SDS011;11994;51.038;16.974;2022-09-09T15:21:28;3.87;;;1.20;;
23634;SDS011;11994;51.038;16.974;2022-09-09T15:23:58;2.60;;;0.80;;
23634;SDS011;11994;51.038;16.974;2022-09-09T15:26:24;3.37;;;0.90;;
23634;SDS011;11994;51.038;16.974;2022-09-09T15:28:51;2.77;;;1.10;;
23634;SDS011;11994;51.038;16.974;2022-09-09T15:31:20;2.35;;;0.90;;
23634;SDS011;11994;51.038;16.974;2022-09-09T15:34:02;3.27;;;1.20;;
23634;SDS011;11994;51.038;16.974;2022-09-09T15:36:35;3.20;;;1.20;;
23634;SDS011;11994;51.038;16.974;2022-09-09T15:39:06;3.37;;;0.93;;
23634;SDS011;11994;51.038;16.974;2022-09-09T15:41:34;2.80;;;0.82;;
23634;SDS011;11994;51.038;16.974;2022-09-09T15:44:01;3.92;;;1.40;;
23634;SDS011;11994;51.038;16.974;2022-09-09T15:49:10;1.98;;;1.00;;
23634;SDS011;11994;51.038;16.974;2022-09-09T15:51:50;4.42;;;1.12;;
23634;SDS011;11994;51.038;16.974;2022-09-09T15:54:16;2.72;;;1.10;;
23634;SDS011;11994;51.038;16.974;2022-09-09T15:56:45;2.45;;;1.00;;
23634;SDS011;11994;51.038;16.974;2022-09-09T15:59:13;3.12;;;1.10;;
23634;SDS011;11994;51.038;16.974;2022-09-09T16:01:40;3.35;;;1.27;;
23634;SDS011;11994;51.038;16.974;2022-09-09T16:04:07;4.60;;;1.30;;
23634;SDS011;11994;51.038;16.974;2022-09-09T16:06:34;3.27;;;1.30;;
23634;SDS011;11994;51.038;16.974;2022-09-09T16:09:03;2.52;;;1.10;;
23634;SDS011;11994;51.038;16.974;2022-09-09T16:11:32;3.37;;;1.10;;
23634;SDS011;11994;51.038;16.974;2022-09-09T16:14:02;3.67;;;0.90;;
23634;SDS011;11994;51.038;16.974;2022-09-09T16:16:30;5.35;;;1.05;;
23634;SDS011;11994;51.038;16.974;2022-09-09T16:18:58;3.35;;;1.30;;
23634;SDS011;11994;51.038;16.974;2022-09-09T16:21:28;2.60;;;1.12;;
23634;SDS011;11994;51.038;16.974;2022-09-09T16:23:57;2.52;;;1.10;;
23634;SDS011;11994;51.038;16.974;2022-09-09T16:26:26;3.80;;;1.20;;
23634;SDS011;11994;51.038;16.974;2022-09-09T16:28:52;4.42;;;1.30;;
23634;SDS011;11994;51.038;16.974;2022-09-09T16:31:20;3.55;;;1.47;;
23634;SDS011;11994;51.038;16.974;2022-09-09T16:33:48;3.87;;;1.20;;
23634;SDS011;11994;51.038;16.974;2022-09-09T16:36:16;2.55;;;1.30;;
23634;SDS011;11994;51.038;16.974;2022-09-09T16:38:51;2.35;;;1.17;;
23634;SDS011;11994;51.038;16.974;2022-09-09T16:41:29;2.70;;;1.20;;
23634;SDS011;11994;51.038;16.974;2022-09-09T16:46:28;3.02;;;1.25;;
23634;SDS011;11994;51.038;16.974;2022-09-09T16:48:56;2.92;;;1.40;;
23634;SDS011;11994;51.038;16.974;2022-09-09T16:51:28;6.25;;;1.40;;
23634;SDS011;11994;51.038;16.974;2022-09-09T16:54:06;4.12;;;1.50;;
23634;SDS011;11994;51.038;16.974;2022-09-09T16:56:38;3.20;;;1.10;;
23634;SDS011;11994;51.038;16.974;2022-09-09T16:59:13;2.65;;;1.20;;
23634;SDS011;11994;51.038;16.974;2022-09-09T17:04:07;4.55;;;1.30;;
23634;SDS011;11994;51.038;16.974;2022-09-09T17:06:36;3.37;;;1.47;;
23634;SDS011;11994;51.038;16.974;2022-09-09T17:09:04;4.97;;;1.55;;
23634;SDS011;11994;51.038;16.974;2022-09-09T17:11:38;3.25;;;1.47;;
23634;SDS011;11994;51.038;16.974;2022-09-09T17:14:06;3.35;;;1.57;;
23634;SDS011;11994;51.038;16.974;2022-09-09T17:16:36;5.25;;;1.50;;
23634;SDS011;11994;51.038;16.974;2022-09-09T17:19:04;4.75;;;1.87;;
23634;SDS011;11994;51.038;16.974;2022-09-09T17:21:31;4.25;;;1.82;;
23634;SDS011;11994;51.038;16.974;2022-09-09T17:23:57;5.85;;;1.82;;
23634;SDS011;11994;51.038;16.974;2022-09-09T17:26:28;4.95;;;1.80;;
23634;SDS011;11994;51.038;16.974;2022-09-09T17:28:58;3.05;;;1.45;;